createdAt,value
2023-07-02T00:00:33.224Z,21.19
2023-07-02T00:03:02.737Z,21.13
2023-07-02T00:05:31.870Z,21.10
2023-07-02T00:08:00.315Z,21.12
2023-07-02T00:10:28.797Z,21.06
2023-07-02T00:12:56.819Z,21.02
2023-07-02T00:15:24.988Z,21.01
2023-07-02T00:17:53.903Z,20.94
2023-07-02T00:20:22.038Z,20.94
2023-07-02T00:22:50.601Z,20.91
2023-07-02T00:25:19.012Z,20.93
2023-07-02T00:27:47.076Z,20.95
2023-07-02T00:30:15.523Z,20.92
2023-07-02T00:32:43.993Z,20.89
2023-07-02T00:35:13.306Z,20.86
2023-07-02T00:37:41.316Z,20.93
2023-07-02T00:40:10.110Z,20.92
2023-07-02T00:42:38.366Z,20.84
2023-07-02T00:45:07.730Z,20.87
2023-07-02T00:47:37.060Z,20.84
2023-07-02T00:50:06.394Z,20.82
2023-07-02T00:52:34.431Z,20.80
2023-07-02T00:55:03.822Z,20.78
2023-07-02T00:57:32.053Z,20.80
2023-07-02T01:00:04.190Z,20.84
2023-07-02T01:02:32.938Z,20.80
2023-07-02T01:05:02.507Z,20.81
2023-07-02T01:07:31.001Z,20.80
2023-07-02T01:09:59.540Z,20.80
2023-07-02T01:12:29.319Z,20.82
2023-07-02T01:15:01.862Z,20.80
2023-07-02T01:17:43.262Z,20.79
2023-07-02T01:20:13.141Z,20.69
2023-07-02T01:22:41.961Z,20.70
2023-07-02T01:25:10.683Z,20.61
2023-07-02T01:27:38.901Z,20.63
2023-07-02T01:30:09.921Z,20.67
2023-07-02T01:32:39.070Z,20.57
2023-07-02T01:35:08.778Z,20.61
2023-07-02T01:37:38.678Z,20.49
2023-07-02T01:40:09.573Z,20.49
2023-07-02T01:42:38.790Z,20.37
2023-07-02T01:45:07.496Z,20.35
2023-07-02T01:47:35.644Z,20.30
2023-07-02T01:50:06.216Z,20.23
2023-07-02T01:52:34.876Z,20.23
2023-07-02T01:55:04.079Z,20.23
2023-07-02T01:57:32.964Z,20.16
2023-07-02T02:00:01.038Z,20.16
2023-07-02T02:02:29.872Z,20.17
2023-07-02T02:04:58.558Z,20.20
2023-07-02T02:07:27.203Z,20.09
2023-07-02T02:09:55.379Z,20.12
2023-07-02T02:12:23.758Z,20.05
2023-07-02T02:14:52.058Z,20.00
2023-07-02T02:17:20.868Z,20.01
2023-07-02T02:19:48.993Z,20.07
2023-07-02T02:22:17.503Z,20.06
2023-07-02T02:24:45.898Z,20.11
2023-07-02T02:27:14.082Z,20.03
2023-07-02T02:29:42.152Z,20.10
2023-07-02T02:32:11.082Z,20.14
2023-07-02T02:34:40.206Z,20.13
2023-07-02T02:37:09.085Z,20.15
2023-07-02T02:39:38.440Z,20.17
2023-07-02T02:42:06.674Z,20.22
2023-07-02T02:44:35.619Z,20.36
2023-07-02T02:47:05.984Z,20.29
2023-07-02T02:49:34.345Z,20.26
2023-07-02T02:52:02.520Z,20.29
2023-07-02T02:54:30.879Z,20.33
2023-07-02T02:56:58.960Z,20.43
2023-07-02T02:59:27.223Z,20.41
2023-07-02T03:01:55.776Z,20.54
2023-07-02T03:04:26.879Z,20.49
2023-07-02T03:06:55.045Z,20.55
2023-07-02T03:09:23.687Z,20.54
2023-07-02T03:11:51.798Z,20.56
2023-07-02T03:14:19.930Z,20.58
2023-07-02T03:16:48.478Z,20.57
2023-07-02T03:19:17.237Z,20.57
2023-07-02T03:21:45.922Z,20.53
2023-07-02T03:24:14.560Z,20.56
2023-07-02T03:26:44.166Z,20.60
2023-07-02T03:29:12.532Z,20.52
2023-07-02T03:31:41.015Z,20.57
2023-07-02T03:34:10.645Z,20.60
2023-07-02T03:36:39.102Z,20.58
2023-07-02T03:39:10.407Z,20.63
2023-07-02T03:41:39.069Z,20.61
2023-07-02T03:44:07.688Z,20.69
2023-07-02T03:46:36.237Z,20.57
2023-07-02T03:49:04.781Z,20.66
2023-07-02T03:51:33.204Z,20.87
2023-07-02T03:54:01.274Z,20.75
2023-07-02T03:56:29.337Z,20.72
2023-07-02T03:58:57.691Z,20.76
2023-07-02T04:01:25.837Z,20.75
2023-07-02T04:03:55.885Z,20.76
2023-07-02T04:06:24.243Z,20.87
2023-07-02T04:08:52.290Z,20.79
2023-07-02T04:11:20.820Z,20.78
2023-07-02T04:13:49.036Z,20.77
2023-07-02T04:16:17.217Z,20.81
2023-07-02T04:18:45.665Z,20.83
2023-07-02T04:21:13.787Z,20.79
2023-07-02T04:23:41.827Z,20.80
2023-07-02T04:26:18.872Z,20.77
2023-07-02T04:29:00.145Z,20.74
2023-07-02T04:31:28.783Z,21.00
2023-07-02T04:33:58.139Z,21.03
2023-07-02T04:36:26.243Z,20.95
2023-07-02T04:38:54.744Z,21.02
2023-07-02T04:41:22.768Z,21.10
2023-07-02T04:43:51.072Z,21.08
2023-07-02T04:46:19.611Z,21.09
2023-07-02T04:48:47.888Z,21.08
2023-07-02T04:51:16.454Z,21.02
2023-07-02T04:53:44.956Z,21.01
2023-07-02T04:56:13.183Z,21.04
2023-07-02T04:58:41.235Z,21.04
2023-07-02T05:01:09.903Z,20.99
2023-07-02T05:03:39.176Z,21.05
2023-07-02T05:06:07.236Z,21.02
2023-07-02T05:08:37.501Z,21.02
2023-07-02T05:11:05.744Z,21.08
2023-07-02T05:13:33.882Z,21.15
2023-07-02T05:16:02.321Z,21.12
2023-07-02T05:18:30.380Z,21.19
2023-07-02T05:20:58.384Z,21.11
2023-07-02T05:23:26.855Z,21.16
2023-07-02T05:25:54.924Z,21.23
2023-07-02T05:28:23.079Z,21.31
2023-07-02T05:30:51.715Z,21.39
2023-07-02T05:33:21.247Z,21.48
2023-07-02T05:35:49.619Z,21.51
2023-07-02T05:38:19.994Z,21.58
2023-07-02T05:40:48.208Z,21.68
2023-07-02T05:43:16.605Z,21.62
2023-07-02T05:45:44.932Z,21.66
2023-07-02T05:48:13.121Z,21.67
2023-07-02T05:50:41.266Z,21.77
2023-07-02T05:53:10.925Z,21.87
2023-07-02T05:55:40.324Z,21.94
2023-07-02T05:58:08.655Z,22.16
2023-07-02T06:00:37.245Z,22.36
2023-07-02T06:03:05.629Z,22.44
2023-07-02T06:05:34.778Z,22.64
2023-07-02T06:08:03.037Z,22.79
2023-07-02T06:10:31.512Z,22.62
2023-07-02T06:12:59.585Z,22.86
2023-07-02T06:15:27.917Z,22.64
2023-07-02T06:17:56.499Z,22.95
2023-07-02T06:20:24.632Z,22.97
2023-07-02T06:22:52.837Z,23.02
2023-07-02T06:25:21.218Z,23.18
2023-07-02T06:27:49.380Z,23.26
2023-07-02T06:30:17.538Z,23.40
2023-07-02T06:32:46.050Z,23.43
2023-07-02T06:35:14.173Z,23.50
2023-07-02T06:37:42.980Z,23.57
2023-07-02T06:40:11.813Z,23.68
2023-07-02T06:42:41.328Z,23.80
2023-07-02T06:45:09.857Z,23.86
2023-07-02T06:47:38.677Z,23.83
2023-07-02T06:50:07.067Z,23.89
2023-07-02T06:52:35.308Z,23.95
2023-07-02T06:55:05.543Z,23.97
2023-07-02T06:57:33.604Z,24.10
2023-07-02T07:00:02.047Z,24.16
2023-07-02T07:02:30.461Z,24.05
2023-07-02T07:04:58.747Z,24.11
2023-07-02T07:07:27.150Z,24.25
2023-07-02T07:09:55.535Z,24.45
2023-07-02T07:12:23.578Z,24.48
2023-07-02T07:14:51.893Z,24.57
2023-07-02T07:17:20.705Z,24.69
2023-07-02T07:19:48.815Z,24.89
2023-07-02T07:22:17.401Z,24.86
2023-07-02T07:24:45.708Z,24.92
2023-07-02T07:27:13.799Z,25.14
2023-07-02T07:29:42.004Z,25.29
2023-07-02T07:32:10.335Z,25.41
2023-07-02T07:34:38.392Z,25.62
2023-07-02T07:37:06.688Z,25.97
2023-07-02T07:39:35.066Z,26.26
2023-07-02T07:42:03.251Z,26.44
2023-07-02T07:44:32.162Z,27.00
2023-07-02T07:47:00.649Z,27.19
2023-07-02T07:49:28.639Z,27.05
2023-07-02T07:51:56.785Z,26.85
2023-07-02T07:54:25.943Z,26.70
2023-07-02T07:56:53.978Z,26.35
2023-07-02T07:59:22.884Z,26.12
2023-07-02T08:01:51.424Z,25.96
2023-07-02T08:04:19.773Z,25.92
2023-07-02T08:06:47.857Z,25.87
2023-07-02T08:09:15.969Z,25.80
2023-07-02T08:11:44.303Z,25.68
2023-07-02T08:14:13.590Z,25.59
2023-07-02T08:16:41.974Z,25.51
2023-07-02T08:19:10.447Z,25.64
2023-07-02T08:21:38.611Z,26.14
2023-07-02T08:24:07.466Z,26.43
2023-07-02T08:26:35.833Z,26.73
2023-07-02T08:29:04.277Z,26.88
2023-07-02T08:31:32.436Z,27.02
2023-07-02T08:34:00.751Z,27.51
2023-07-02T08:36:28.838Z,27.50
2023-07-02T08:38:56.923Z,27.56
2023-07-02T08:41:25.374Z,27.74
2023-07-02T08:43:56.972Z,28.00
2023-07-02T08:46:25.606Z,28.19
2023-07-02T08:48:53.917Z,28.08
2023-07-02T08:51:22.130Z,28.14
2023-07-02T08:53:50.653Z,27.64
2023-07-02T08:56:18.765Z,27.91
2023-07-02T08:58:46.963Z,28.13
2023-07-02T09:01:15.918Z,28.13
2023-07-02T09:03:44.179Z,28.02
2023-07-02T09:06:14.001Z,28.26
2023-07-02T09:08:42.830Z,28.20
2023-07-02T09:11:19.978Z,28.35
2023-07-02T09:13:53.508Z,28.47
2023-07-02T09:16:33.965Z,28.56
2023-07-02T09:19:03.561Z,28.61
2023-07-02T09:21:46.275Z,28.72
2023-07-02T09:24:22.666Z,28.52
2023-07-02T09:26:52.694Z,29.03
2023-07-02T09:29:42.310Z,28.96
2023-07-02T09:32:11.250Z,28.47
2023-07-02T09:34:43.686Z,28.80
2023-07-02T09:37:11.862Z,28.85
2023-07-02T09:39:40.699Z,29.10
2023-07-02T09:42:10.727Z,29.11
2023-07-02T09:44:39.456Z,28.77
2023-07-02T09:47:09.574Z,28.94
2023-07-02T09:49:44.808Z,28.97
2023-07-02T09:52:14.753Z,28.76
2023-07-02T09:54:46.270Z,29.13
2023-07-02T09:57:14.770Z,29.24
2023-07-02T09:59:43.381Z,29.47
2023-07-02T10:02:13.354Z,29.07
2023-07-02T10:04:46.988Z,28.85
2023-07-02T10:07:30.749Z,28.92
2023-07-02T10:09:59.486Z,28.85
2023-07-02T10:12:29.672Z,29.03
2023-07-02T10:14:59.427Z,28.77
2023-07-02T10:17:32.411Z,28.50
2023-07-02T10:20:06.946Z,28.03
2023-07-02T10:22:44.772Z,27.28
2023-07-02T10:25:12.876Z,27.23
2023-07-02T10:27:43.692Z,27.02
2023-07-02T10:30:12.004Z,27.21
2023-07-02T10:32:41.141Z,27.78
2023-07-02T10:35:19.253Z,27.87
2023-07-02T10:37:48.003Z,28.07
2023-07-02T10:40:16.282Z,28.28
2023-07-02T10:42:48.104Z,28.02
2023-07-02T10:45:17.595Z,28.02
2023-07-02T10:47:46.652Z,28.04
2023-07-02T10:50:21.606Z,28.21
2023-07-02T10:52:51.844Z,28.27
2023-07-02T10:55:21.431Z,28.34
2023-07-02T10:57:52.595Z,28.60
2023-07-02T11:00:21.075Z,28.74
2023-07-02T11:02:49.966Z,28.82
2023-07-02T11:05:18.658Z,28.57
2023-07-02T11:07:46.748Z,28.48
2023-07-02T11:10:21.315Z,28.20
2023-07-02T11:12:49.516Z,28.42
2023-07-02T11:15:21.340Z,28.47
2023-07-02T11:17:49.644Z,28.52
2023-07-02T11:20:18.277Z,28.79
2023-07-02T11:22:47.595Z,28.72
2023-07-02T11:25:17.903Z,28.39
2023-07-02T11:27:46.227Z,28.56
2023-07-02T11:30:15.055Z,28.56
2023-07-02T11:32:50.920Z,28.54
2023-07-02T11:35:20.249Z,28.55
2023-07-02T11:37:50.317Z,28.57
2023-07-02T11:40:18.971Z,28.26
2023-07-02T11:42:47.328Z,28.16
2023-07-02T11:45:15.473Z,28.36
2023-07-02T11:47:43.692Z,28.19
2023-07-02T11:50:25.569Z,28.14
2023-07-02T11:52:54.820Z,28.24
2023-07-02T11:55:23.680Z,28.23
2023-07-02T11:57:51.813Z,28.19
2023-07-02T12:00:20.125Z,28.12
2023-07-02T12:02:49.518Z,27.92
2023-07-02T12:05:17.660Z,28.11
2023-07-02T12:07:45.960Z,27.97
2023-07-02T12:10:15.631Z,27.82
2023-07-02T12:12:43.744Z,27.73
2023-07-02T12:15:12.023Z,27.88
2023-07-02T12:17:40.433Z,27.94
2023-07-02T12:20:09.002Z,28.17
2023-07-02T12:22:37.162Z,28.01
2023-07-02T12:25:06.577Z,28.23
2023-07-02T12:27:34.625Z,28.09
2023-07-02T12:30:03.838Z,28.18
2023-07-02T12:32:32.533Z,28.25
2023-07-02T12:35:00.654Z,28.30
2023-07-02T12:37:28.765Z,27.89
2023-07-02T12:39:57.266Z,27.88
2023-07-02T12:42:25.437Z,28.15
2023-07-02T12:44:53.736Z,28.05
2023-07-02T12:47:22.201Z,28.01
2023-07-02T12:49:50.314Z,27.61
2023-07-02T12:52:18.522Z,27.72
2023-07-02T12:54:47.131Z,27.94
2023-07-02T12:57:15.260Z,27.96
2023-07-02T12:59:44.140Z,28.06
2023-07-02T13:02:12.691Z,27.91
2023-07-02T13:04:41.096Z,28.03
2023-07-02T13:07:12.075Z,28.23
2023-07-02T13:09:40.787Z,28.25
2023-07-02T13:12:09.427Z,28.27
2023-07-02T13:14:37.811Z,28.18
2023-07-02T13:17:06.672Z,28.33
2023-07-02T13:19:35.192Z,28.42
2023-07-02T13:22:04.027Z,28.40
2023-07-02T13:24:38.886Z,28.17
2023-07-02T13:27:13.857Z,28.04
2023-07-02T13:29:42.290Z,28.08
2023-07-02T13:32:10.746Z,28.08
2023-07-02T13:34:39.151Z,28.17
2023-07-02T13:37:08.425Z,28.15
2023-07-02T13:39:36.696Z,27.97
2023-07-02T13:42:05.123Z,28.12
2023-07-02T13:44:33.635Z,28.15
2023-07-02T13:47:01.732Z,27.97
2023-07-02T13:49:29.798Z,28.18
2023-07-02T13:51:58.373Z,27.97
2023-07-02T13:54:26.690Z,28.07
2023-07-02T13:56:54.767Z,28.15
2023-07-02T13:59:23.818Z,28.07
2023-07-02T14:01:52.210Z,27.90
2023-07-02T14:04:20.652Z,28.01
2023-07-02T14:06:48.988Z,27.90
2023-07-02T14:09:17.101Z,28.03
2023-07-02T14:11:45.493Z,28.16
2023-07-02T14:14:13.587Z,28.20
2023-07-02T14:16:42.146Z,28.24
2023-07-02T14:19:10.738Z,28.04
2023-07-02T14:21:39.009Z,27.86
2023-07-02T14:24:07.190Z,27.49
2023-07-02T14:26:35.552Z,27.42
2023-07-02T14:29:03.900Z,27.53
2023-07-02T14:31:31.997Z,27.34
2023-07-02T14:34:00.527Z,27.51
2023-07-02T14:36:28.649Z,27.70
2023-07-02T14:38:56.755Z,27.79
2023-07-02T14:41:25.138Z,27.76
2023-07-02T14:43:53.156Z,27.52
2023-07-02T14:46:23.579Z,27.53
2023-07-02T14:48:52.058Z,27.31
2023-07-02T14:51:20.205Z,27.30
2023-07-02T14:53:48.252Z,27.26
2023-07-02T14:56:16.855Z,27.27
2023-07-02T14:58:44.990Z,27.44
2023-07-02T15:01:13.064Z,27.33
2023-07-02T15:03:41.811Z,27.25
2023-07-02T15:06:15.170Z,27.34
2023-07-02T15:08:43.658Z,27.45
2023-07-02T15:11:13.387Z,27.26
2023-07-02T15:13:45.028Z,27.40
2023-07-02T15:16:14.105Z,27.34
2023-07-02T15:18:42.306Z,27.28
2023-07-02T15:21:10.606Z,27.10
2023-07-02T15:23:39.024Z,27.33
2023-07-02T15:26:07.721Z,27.19
2023-07-02T15:28:37.342Z,27.07
2023-07-02T15:31:09.577Z,27.16
2023-07-02T15:33:38.199Z,27.19
2023-07-02T15:36:10.247Z,27.35
2023-07-02T15:38:38.466Z,27.25
2023-07-02T15:41:16.390Z,26.99
2023-07-02T15:43:45.484Z,27.03
2023-07-02T15:46:16.773Z,26.86
2023-07-02T15:48:45.691Z,26.86
2023-07-02T15:51:14.064Z,26.93
2023-07-02T15:53:43.538Z,26.81
2023-07-02T15:56:12.190Z,26.77
2023-07-02T15:58:40.596Z,26.86
2023-07-02T16:01:15.227Z,26.82
2023-07-02T16:03:44.367Z,26.66
2023-07-02T16:06:14.498Z,26.52
2023-07-02T16:08:44.170Z,26.60
2023-07-02T16:11:14.265Z,26.52
2023-07-02T16:13:43.802Z,26.53
2023-07-02T16:16:12.386Z,26.32
2023-07-02T16:18:40.785Z,26.35
2023-07-02T16:21:08.946Z,26.42
2023-07-02T16:23:37.306Z,26.36
2023-07-02T16:26:07.028Z,26.20
2023-07-02T16:28:37.226Z,26.23
2023-07-02T16:31:09.146Z,26.15
2023-07-02T16:33:38.494Z,26.18
2023-07-02T16:36:09.939Z,26.17
2023-07-02T16:38:38.394Z,26.51
2023-07-02T16:41:09.452Z,26.37
2023-07-02T16:43:37.497Z,25.98
2023-07-02T16:46:05.608Z,25.93
2023-07-02T16:48:34.005Z,25.78
2023-07-02T16:51:07.292Z,25.73
2023-07-02T16:53:35.760Z,25.66
2023-07-02T16:56:05.888Z,25.66
2023-07-02T16:58:34.580Z,25.62
2023-07-02T17:01:09.118Z,25.71
2023-07-02T17:03:37.424Z,25.71
2023-07-02T17:06:07.852Z,25.64
2023-07-02T17:08:39.042Z,25.60
2023-07-02T17:11:09.735Z,25.57
2023-07-02T17:13:38.176Z,25.59
2023-07-02T17:16:07.147Z,25.61
2023-07-02T17:18:35.808Z,25.51
2023-07-02T17:21:04.011Z,25.45
2023-07-02T17:23:32.035Z,25.35
2023-07-02T17:26:05.206Z,25.31
2023-07-02T17:28:33.675Z,25.42
2023-07-02T17:31:03.099Z,25.33
2023-07-02T17:33:31.334Z,25.26
2023-07-02T17:35:59.438Z,25.14
2023-07-02T17:38:27.773Z,25.04
2023-07-02T17:40:55.799Z,24.72
2023-07-02T17:43:23.809Z,24.79
2023-07-02T17:45:56.572Z,24.82
2023-07-02T17:48:27.051Z,24.78
2023-07-02T17:51:00.387Z,24.54
2023-07-02T17:53:32.388Z,24.66
2023-07-02T17:56:01.056Z,24.59
2023-07-02T17:58:29.410Z,24.75
2023-07-02T18:00:57.662Z,24.59
2023-07-02T18:03:26.402Z,24.40
2023-07-02T18:05:55.040Z,24.54
2023-07-02T18:08:23.474Z,24.47
2023-07-02T18:10:52.042Z,24.50
2023-07-02T18:13:22.462Z,24.33
2023-07-02T18:15:52.386Z,24.23
2023-07-02T18:18:21.908Z,24.21
2023-07-02T18:20:50.640Z,24.16
2023-07-02T18:23:19.773Z,24.06
2023-07-02T18:25:53.534Z,24.09
2023-07-02T18:28:24.804Z,24.13
2023-07-02T18:30:54.017Z,23.89
2023-07-02T18:33:22.126Z,23.90
2023-07-02T18:35:51.076Z,23.76
2023-07-02T18:38:19.915Z,23.83
2023-07-02T18:40:48.063Z,23.66
2023-07-02T18:43:16.174Z,23.68
2023-07-02T18:45:52.312Z,23.62
2023-07-02T18:48:21.546Z,23.57
2023-07-02T18:50:50.159Z,23.44
2023-07-02T18:53:19.838Z,23.56
2023-07-02T18:55:58.812Z,23.36
2023-07-02T18:58:28.417Z,23.31
2023-07-02T19:00:56.953Z,23.18
2023-07-02T19:03:25.033Z,23.14
2023-07-02T19:05:53.578Z,23.14
2023-07-02T19:08:22.507Z,23.12
2023-07-02T19:11:01.102Z,23.06
2023-07-02T19:13:29.658Z,23.09
2023-07-02T19:15:57.774Z,23.00
2023-07-02T19:18:26.936Z,23.04
2023-07-02T19:20:59.096Z,23.02
2023-07-02T19:23:32.269Z,22.85
2023-07-02T19:26:00.755Z,22.77
2023-07-02T19:28:29.150Z,22.70
2023-07-02T19:31:02.178Z,22.70
2023-07-02T19:33:31.090Z,22.64
2023-07-02T19:35:59.216Z,22.61
2023-07-02T19:38:30.592Z,22.54
2023-07-02T19:40:59.496Z,22.39
2023-07-02T19:43:28.228Z,22.43
2023-07-02T19:45:58.886Z,22.58
2023-07-02T19:48:28.030Z,22.50
2023-07-02T19:51:05.130Z,22.50
2023-07-02T19:53:35.383Z,22.41
2023-07-02T19:56:07.772Z,22.57
2023-07-02T19:58:36.660Z,22.38
2023-07-02T20:01:11.271Z,22.41
2023-07-02T20:03:41.762Z,22.34
2023-07-02T20:06:10.926Z,22.25
2023-07-02T20:08:39.540Z,22.29
2023-07-02T20:11:07.856Z,22.24
2023-07-02T20:13:36.780Z,22.16
2023-07-02T20:16:05.780Z,22.30
2023-07-02T20:18:33.799Z,22.07
2023-07-02T20:21:04.040Z,22.02
2023-07-02T20:23:33.504Z,21.99
2023-07-02T20:26:01.736Z,22.05
2023-07-02T20:28:29.968Z,21.88
2023-07-02T20:31:03.202Z,21.88
2023-07-02T20:33:31.408Z,21.86
2023-07-02T20:36:02.455Z,21.87
2023-07-02T20:38:31.618Z,21.73
2023-07-02T20:41:03.508Z,21.70
2023-07-02T20:43:34.718Z,21.64
2023-07-02T20:46:05.706Z,21.63
2023-07-02T20:48:34.837Z,21.67
2023-07-02T20:51:04.506Z,21.62
2023-07-02T20:53:32.656Z,21.66
2023-07-02T20:56:00.852Z,21.76
2023-07-02T20:58:29.440Z,21.66
2023-07-02T21:01:02.827Z,21.54
2023-07-02T21:03:31.641Z,21.54
2023-07-02T21:06:04.224Z,21.40
2023-07-02T21:08:32.913Z,21.39
2023-07-02T21:11:04.922Z,21.40
2023-07-02T21:13:35.905Z,21.17
2023-07-02T21:16:07.242Z,21.23
2023-07-02T21:18:35.682Z,21.20
2023-07-02T21:21:03.830Z,21.18
2023-07-02T21:23:32.775Z,21.22
2023-07-02T21:26:03.942Z,21.13
2023-07-02T21:28:32.554Z,21.06
2023-07-02T21:31:01.206Z,21.04
2023-07-02T21:33:32.209Z,20.90
2023-07-02T21:36:09.070Z,21.00
2023-07-02T21:38:39.010Z,20.95
2023-07-02T21:41:09.383Z,20.87
2023-07-02T21:43:37.720Z,20.62
2023-07-02T21:46:08.670Z,20.73
2023-07-02T21:48:40.222Z,20.66
2023-07-02T21:51:08.306Z,20.57
2023-07-02T21:53:37.507Z,20.47
2023-07-02T21:56:06.019Z,20.47
2023-07-02T21:58:34.191Z,20.41
2023-07-02T22:01:02.770Z,20.31
2023-07-02T22:03:31.380Z,20.30
2023-07-02T22:05:59.972Z,20.24
2023-07-02T22:08:28.113Z,20.17
2023-07-02T22:11:05.833Z,20.14
2023-07-02T22:13:37.486Z,20.12
2023-07-02T22:16:05.971Z,20.13
2023-07-02T22:18:38.065Z,20.11
2023-07-02T22:21:07.273Z,20.19
2023-07-02T22:23:35.773Z,20.05
2023-07-02T22:26:04.378Z,20.11
2023-07-02T22:28:33.052Z,20.07
2023-07-02T22:31:03.398Z,20.06
2023-07-02T22:33:33.750Z,20.02
2023-07-02T22:36:02.316Z,20.02
2023-07-02T22:38:30.453Z,20.05
2023-07-02T22:40:58.535Z,19.81
2023-07-02T22:43:26.946Z,19.95
2023-07-02T22:45:55.378Z,20.02
2023-07-02T22:48:23.670Z,19.96
2023-07-02T22:50:52.025Z,19.95
2023-07-02T22:53:20.050Z,19.89
2023-07-02T22:55:48.211Z,19.68
2023-07-02T22:58:16.713Z,19.80
2023-07-02T23:00:44.859Z,19.62
2023-07-02T23:03:14.288Z,19.68
2023-07-02T23:05:42.991Z,19.77
2023-07-02T23:08:13.153Z,19.68
2023-07-02T23:10:41.282Z,19.65
2023-07-02T23:13:09.808Z,19.60
2023-07-02T23:15:37.863Z,19.57
2023-07-02T23:18:05.915Z,19.62
2023-07-02T23:20:37.870Z,19.55
2023-07-02T23:23:07.107Z,19.58
2023-07-02T23:25:35.775Z,19.49
2023-07-02T23:28:04.356Z,19.41
2023-07-02T23:30:35.055Z,19.46
2023-07-02T23:33:11.039Z,19.53
2023-07-02T23:35:39.608Z,19.49
2023-07-02T23:38:08.446Z,19.54
2023-07-02T23:40:37.051Z,19.40
2023-07-02T23:43:05.777Z,19.31
2023-07-02T23:45:34.363Z,19.25
2023-07-02T23:48:02.472Z,19.26
2023-07-02T23:50:30.639Z,19.34
2023-07-02T23:52:59.068Z,19.19
2023-07-02T23:55:27.196Z,19.17
2023-07-02T23:57:55.436Z,19.11
